createdAt,value
2024-04-24T00:04:51.082Z,100971.56
2024-04-24T00:24:52.326Z,100953.10
2024-04-24T00:44:53.537Z,100937.86
2024-04-24T01:04:54.788Z,100913.94
2024-04-24T01:24:56.026Z,100892.78
2024-04-24T01:44:57.203Z,100870.48
2024-04-24T02:04:58.428Z,100852.59
2024-04-24T02:24:59.633Z,100826.80
2024-04-24T02:45:00.862Z,100809.34
2024-04-24T03:05:02.199Z,100783.75
2024-04-24T03:25:03.479Z,100756.85
2024-04-24T03:45:04.673Z,100727.80
2024-04-24T04:05:05.890Z,100712.08
2024-04-24T04:25:07.102Z,100693.98
2024-04-24T04:45:08.295Z,100678.14
2024-04-24T05:05:09.529Z,100659.95
2024-04-24T05:25:10.774Z,100654.04
2024-04-24T05:45:12.047Z,100635.02
2024-04-24T06:05:13.358Z,100614.59
2024-04-24T06:25:14.770Z,100610.52
2024-04-24T06:45:15.963Z,100587.37
2024-04-24T07:05:17.184Z,100570.63
2024-04-24T07:25:18.577Z,100556.70
2024-04-24T07:45:19.761Z,100541.09
2024-04-24T08:05:20.989Z,100511.16
2024-04-24T08:25:22.221Z,100489.63
2024-04-24T08:45:23.406Z,100471.89
2024-04-24T09:05:24.934Z,100449.10
2024-04-24T09:25:26.112Z,100444.19
2024-04-24T09:45:27.416Z,100417.07
2024-04-24T10:05:33.501Z,100394.20
2024-04-24T10:25:40.425Z,100374.67
2024-04-24T10:45:42.812Z,100347.77
2024-04-24T11:05:44.593Z,100323.60
2024-04-24T11:25:52.100Z,100303.64
2024-04-24T11:45:59.238Z,100292.47
2024-04-24T12:06:00.427Z,100279.38
2024-04-24T12:26:01.648Z,100257.17
2024-04-24T12:46:02.926Z,100235.15
2024-04-24T13:06:04.122Z,100211.76
2024-04-24T13:26:05.373Z,100192.08
2024-04-24T13:46:06.619Z,100170.34
2024-04-24T14:06:07.908Z,100159.69
2024-04-24T14:26:09.109Z,100148.46
2024-04-24T14:46:10.321Z,100140.65
2024-04-24T15:06:11.883Z,100137.08
2024-04-24T15:26:13.115Z,100128.56
2024-04-24T15:46:14.425Z,100118.43
2024-04-24T16:06:15.619Z,100113.05
2024-04-24T16:26:16.839Z,100099.11
2024-04-24T16:46:18.111Z,100096.52
2024-04-24T17:06:19.301Z,100086.02
2024-04-24T17:26:29.670Z,100087.56
2024-04-24T17:46:34.962Z,100091.55
2024-04-24T18:06:36.243Z,100105.65
2024-04-24T18:26:37.472Z,100118.07
2024-04-24T18:46:38.863Z,100140.15
2024-04-24T19:06:40.127Z,100159.39
2024-04-24T19:26:41.347Z,100163.27
2024-04-24T19:46:42.655Z,100157.74
2024-04-24T20:06:43.843Z,100159.11
2024-04-24T20:26:45.079Z,100158.56
2024-04-24T20:46:46.363Z,100160.02
2024-04-24T21:06:47.634Z,100166.86
2024-04-24T21:26:48.836Z,100175.48
2024-04-24T21:46:50.081Z,100173.20
2024-04-24T22:06:51.322Z,100164.36
2024-04-24T22:26:52.630Z,100161.26
2024-04-24T22:46:53.843Z,100157.19
2024-04-24T23:06:55.050Z,100156.66
2024-04-24T23:26:56.294Z,100151.48
2024-04-24T23:46:57.496Z,100148.52
